sensor_id;sensor_type;location;lat;lon;timestamp;P1;durP1;ratioP1;P2;durP2;ratioP2
54899;SDS011;40801;41.924;25.562;2023-03-01T00:01:48;46.00;;;23.90;;
54899;SDS011;40801;41.924;25.562;2023-03-01T00:04:14;40.97;;;23.23;;
54899;SDS011;40801;41.924;25.562;2023-03-01T00:06:39;40.00;;;24.25;;
54899;SDS011;40801;41.924;25.562;2023-03-01T00:09:06;42.13;;;26.20;;
54899;SDS011;40801;41.924;25.562;2023-03-01T00:11:32;49.00;;;28.95;;
54899;SDS011;40801;41.924;25.562;2023-03-01T00:13:59;49.03;;;30.33;;
54899;SDS011;40801;41.924;25.562;2023-03-01T00:16:33;43.55;;;27.25;;
54899;SDS011;40801;41.924;25.562;2023-03-01T00:19:01;48.78;;;28.27;;
54899;SDS011;40801;41.924;25.562;2023-03-01T00:21:27;47.40;;;31.73;;
54899;SDS011;40801;41.924;25.562;2023-03-01T00:23:53;48.13;;;29.08;;
54899;SDS011;40801;41.924;25.562;2023-03-01T00:26:20;54.35;;;33.03;;
54899;SDS011;40801;41.924;25.562;2023-03-01T00:28:49;63.42;;;36.72;;
54899;SDS011;40801;41.924;25.562;2023-03-01T00:31:17;63.45;;;34.95;;
54899;SDS011;40801;41.924;25.562;2023-03-01T00:33:44;57.42;;;31.88;;
54899;SDS011;40801;41.924;25.562;2023-03-01T00:36:11;48.10;;;29.38;;
54899;SDS011;40801;41.924;25.562;2023-03-01T00:38:39;54.15;;;31.50;;
54899;SDS011;40801;41.924;25.562;2023-03-01T00:41:07;51.80;;;29.13;;
54899;SDS011;40801;41.924;25.562;2023-03-01T00:43:34;52.55;;;32.50;;
54899;SDS011;40801;41.924;25.562;2023-03-01T00:46:21;56.60;;;32.03;;
54899;SDS011;40801;41.924;25.562;2023-03-01T00:48:48;58.15;;;33.63;;
54899;SDS011;40801;41.924;25.562;2023-03-01T00:51:15;69.38;;;36.35;;
54899;SDS011;40801;41.924;25.562;2023-03-01T00:53:43;68.35;;;36.90;;
54899;SDS011;40801;41.924;25.562;2023-03-01T00:56:10;65.88;;;37.25;;
54899;SDS011;40801;41.924;25.562;2023-03-01T00:58:37;59.47;;;34.08;;
54899;SDS011;40801;41.924;25.562;2023-03-01T01:01:14;73.82;;;40.58;;
54899;SDS011;40801;41.924;25.562;2023-03-01T01:03:48;69.53;;;37.25;;
54899;SDS011;40801;41.924;25.562;2023-03-01T01:06:19;60.00;;;35.13;;
54899;SDS011;40801;41.924;25.562;2023-03-01T01:08:46;59.17;;;32.75;;
54899;SDS011;40801;41.924;25.562;2023-03-01T01:11:13;56.80;;;33.28;;
54899;SDS011;40801;41.924;25.562;2023-03-01T01:13:39;51.83;;;30.20;;
54899;SDS011;40801;41.924;25.562;2023-03-01T01:16:05;44.88;;;29.08;;
54899;SDS011;40801;41.924;25.562;2023-03-01T01:18:31;47.05;;;30.15;;
54899;SDS011;40801;41.924;25.562;2023-03-01T01:20:57;48.22;;;31.20;;
54899;SDS011;40801;41.924;25.562;2023-03-01T01:23:22;41.22;;;28.35;;
54899;SDS011;40801;41.924;25.562;2023-03-01T01:25:48;35.28;;;26.23;;
54899;SDS011;40801;41.924;25.562;2023-03-01T01:28:13;36.83;;;25.25;;
54899;SDS011;40801;41.924;25.562;2023-03-01T01:30:39;33.10;;;24.02;;
54899;SDS011;40801;41.924;25.562;2023-03-01T01:33:04;25.17;;;21.77;;
54899;SDS011;40801;41.924;25.562;2023-03-01T01:35:30;21.90;;;17.95;;
54899;SDS011;40801;41.924;25.562;2023-03-01T01:37:55;23.58;;;18.85;;
54899;SDS011;40801;41.924;25.562;2023-03-01T01:40:20;23.35;;;18.77;;
54899;SDS011;40801;41.924;25.562;2023-03-01T01:42:46;18.73;;;16.60;;
54899;SDS011;40801;41.924;25.562;2023-03-01T01:45:24;21.10;;;17.25;;
54899;SDS011;40801;41.924;25.562;2023-03-01T01:47:51;16.33;;;14.60;;
54899;SDS011;40801;41.924;25.562;2023-03-01T01:50:18;19.92;;;17.00;;
54899;SDS011;40801;41.924;25.562;2023-03-01T01:52:44;21.58;;;16.00;;
54899;SDS011;40801;41.924;25.562;2023-03-01T01:55:12;20.02;;;16.40;;
54899;SDS011;40801;41.924;25.562;2023-03-01T02:00:27;15.07;;;13.50;;
54899;SDS011;40801;41.924;25.562;2023-03-01T02:03:01;17.25;;;15.45;;
54899;SDS011;40801;41.924;25.562;2023-03-01T02:08:16;15.10;;;13.50;;
54899;SDS011;40801;41.924;25.562;2023-03-01T02:10:44;13.60;;;12.18;;
54899;SDS011;40801;41.924;25.562;2023-03-01T02:13:11;13.02;;;11.68;;
54899;SDS011;40801;41.924;25.562;2023-03-01T02:15:37;14.65;;;13.07;;
54899;SDS011;40801;41.924;25.562;2023-03-01T02:18:04;13.13;;;11.82;;
54899;SDS011;40801;41.924;25.562;2023-03-01T02:20:39;12.80;;;11.52;;
54899;SDS011;40801;41.924;25.562;2023-03-01T02:23:11;12.00;;;10.82;;
54899;SDS011;40801;41.924;25.562;2023-03-01T02:28:33;15.00;;;13.55;;
54899;SDS011;40801;41.924;25.562;2023-03-01T02:31:07;13.60;;;12.32;;
54899;SDS011;40801;41.924;25.562;2023-03-01T02:33:53;14.90;;;12.55;;
54899;SDS011;40801;41.924;25.562;2023-03-01T02:36:21;16.67;;;13.93;;
54899;SDS011;40801;41.924;25.562;2023-03-01T02:38:51;14.07;;;12.77;;
54899;SDS011;40801;41.924;25.562;2023-03-01T02:41:19;12.23;;;11.02;;
54899;SDS011;40801;41.924;25.562;2023-03-01T02:43:46;16.05;;;14.40;;
54899;SDS011;40801;41.924;25.562;2023-03-01T02:46:20;17.27;;;15.48;;
54899;SDS011;40801;41.924;25.562;2023-03-01T02:48:54;21.48;;;18.08;;
54899;SDS011;40801;41.924;25.562;2023-03-01T02:51:32;19.95;;;16.83;;
54899;SDS011;40801;41.924;25.562;2023-03-01T02:56:49;26.60;;;21.15;;
54899;SDS011;40801;41.924;25.562;2023-03-01T02:59:16;29.48;;;23.00;;
54899;SDS011;40801;41.924;25.562;2023-03-01T03:01:44;41.08;;;28.65;;
54899;SDS011;40801;41.924;25.562;2023-03-01T03:04:13;36.75;;;25.35;;
54899;SDS011;40801;41.924;25.562;2023-03-01T03:06:44;38.15;;;27.80;;
54899;SDS011;40801;41.924;25.562;2023-03-01T03:09:10;40.35;;;27.65;;
54899;SDS011;40801;41.924;25.562;2023-03-01T03:11:37;42.13;;;30.25;;
54899;SDS011;40801;41.924;25.562;2023-03-01T03:14:04;46.20;;;31.30;;
54899;SDS011;40801;41.924;25.562;2023-03-01T03:16:29;37.88;;;27.05;;
54899;SDS011;40801;41.924;25.562;2023-03-01T03:18:55;52.35;;;30.23;;
54899;SDS011;40801;41.924;25.562;2023-03-01T03:21:32;39.80;;;26.45;;
54899;SDS011;40801;41.924;25.562;2023-03-01T03:23:58;35.33;;;24.40;;
54899;SDS011;40801;41.924;25.562;2023-03-01T03:26:24;58.65;;;32.70;;
54899;SDS011;40801;41.924;25.562;2023-03-01T03:28:49;62.45;;;33.13;;
54899;SDS011;40801;41.924;25.562;2023-03-01T03:31:15;51.08;;;34.22;;
54899;SDS011;40801;41.924;25.562;2023-03-01T03:33:40;49.53;;;32.75;;
54899;SDS011;40801;41.924;25.562;2023-03-01T03:36:06;36.28;;;24.40;;
54899;SDS011;40801;41.924;25.562;2023-03-01T03:38:31;23.63;;;18.58;;
54899;SDS011;40801;41.924;25.562;2023-03-01T03:41:04;24.00;;;17.58;;
54899;SDS011;40801;41.924;25.562;2023-03-01T03:43:32;23.45;;;18.83;;
54899;SDS011;40801;41.924;25.562;2023-03-01T03:48:44;19.55;;;17.33;;
54899;SDS011;40801;41.924;25.562;2023-03-01T03:51:11;23.60;;;19.48;;
54899;SDS011;40801;41.924;25.562;2023-03-01T03:53:38;17.38;;;14.88;;
54899;SDS011;40801;41.924;25.562;2023-03-01T03:56:04;17.95;;;14.45;;
54899;SDS011;40801;41.924;25.562;2023-03-01T03:58:29;17.52;;;15.00;;
54899;SDS011;40801;41.924;25.562;2023-03-01T04:00:56;16.88;;;15.18;;
54899;SDS011;40801;41.924;25.562;2023-03-01T04:03:23;15.82;;;14.18;;
54899;SDS011;40801;41.924;25.562;2023-03-01T04:05:50;16.52;;;14.65;;
54899;SDS011;40801;41.924;25.562;2023-03-01T04:08:17;16.63;;;15.00;;
54899;SDS011;40801;41.924;25.562;2023-03-01T04:10:46;20.67;;;18.03;;
54899;SDS011;40801;41.924;25.562;2023-03-01T04:13:14;34.38;;;23.25;;
54899;SDS011;40801;41.924;25.562;2023-03-01T04:15:41;28.58;;;21.80;;
54899;SDS011;40801;41.924;25.562;2023-03-01T04:18:14;43.97;;;31.42;;
54899;SDS011;40801;41.924;25.562;2023-03-01T04:20:41;49.50;;;34.28;;
54899;SDS011;40801;41.924;25.562;2023-03-01T04:23:09;47.53;;;31.73;;
54899;SDS011;40801;41.924;25.562;2023-03-01T04:28:27;55.58;;;37.03;;
54899;SDS011;40801;41.924;25.562;2023-03-01T04:30:54;53.70;;;36.17;;
54899;SDS011;40801;41.924;25.562;2023-03-01T04:33:22;59.63;;;39.88;;
54899;SDS011;40801;41.924;25.562;2023-03-01T04:35:48;61.00;;;39.35;;
54899;SDS011;40801;41.924;25.562;2023-03-01T04:38:14;50.40;;;34.05;;
54899;SDS011;40801;41.924;25.562;2023-03-01T04:40:40;43.42;;;32.28;;
54899;SDS011;40801;41.924;25.562;2023-03-01T04:43:08;50.80;;;36.22;;
54899;SDS011;40801;41.924;25.562;2023-03-01T04:45:34;47.72;;;35.22;;
54899;SDS011;40801;41.924;25.562;2023-03-01T04:48:00;50.13;;;38.25;;
54899;SDS011;40801;41.924;25.562;2023-03-01T04:50:25;54.58;;;36.50;;
54899;SDS011;40801;41.924;25.562;2023-03-01T04:52:51;59.80;;;38.55;;
54899;SDS011;40801;41.924;25.562;2023-03-01T04:55:17;57.72;;;39.13;;
54899;SDS011;40801;41.924;25.562;2023-03-01T04:57:42;50.17;;;36.13;;
54899;SDS011;40801;41.924;25.562;2023-03-01T05:00:10;51.88;;;35.53;;
54899;SDS011;40801;41.924;25.562;2023-03-01T05:02:55;50.88;;;34.65;;
54899;SDS011;40801;41.924;25.562;2023-03-01T05:05:23;66.10;;;39.92;;
54899;SDS011;40801;41.924;25.562;2023-03-01T05:07:50;56.63;;;36.72;;
54899;SDS011;40801;41.924;25.562;2023-03-01T05:10:17;50.42;;;34.40;;
54899;SDS011;40801;41.924;25.562;2023-03-01T05:12:43;48.00;;;34.28;;
54899;SDS011;40801;41.924;25.562;2023-03-01T05:15:08;57.40;;;37.30;;
54899;SDS011;40801;41.924;25.562;2023-03-01T05:17:34;68.55;;;44.38;;
54899;SDS011;40801;41.924;25.562;2023-03-01T05:20:00;86.85;;;47.53;;
54899;SDS011;40801;41.924;25.562;2023-03-01T05:22:26;85.20;;;46.17;;
54899;SDS011;40801;41.924;25.562;2023-03-01T05:24:51;73.25;;;43.60;;
54899;SDS011;40801;41.924;25.562;2023-03-01T05:27:19;73.95;;;42.67;;
54899;SDS011;40801;41.924;25.562;2023-03-01T05:29:47;76.65;;;51.65;;
54899;SDS011;40801;41.924;25.562;2023-03-01T05:32:13;52.42;;;36.35;;
54899;SDS011;40801;41.924;25.562;2023-03-01T05:34:40;57.00;;;37.63;;
54899;SDS011;40801;41.924;25.562;2023-03-01T05:37:06;45.55;;;31.10;;
54899;SDS011;40801;41.924;25.562;2023-03-01T05:39:32;46.50;;;32.63;;
54899;SDS011;40801;41.924;25.562;2023-03-01T05:41:59;53.83;;;35.97;;
54899;SDS011;40801;41.924;25.562;2023-03-01T05:44:26;50.45;;;34.25;;
54899;SDS011;40801;41.924;25.562;2023-03-01T05:46:52;46.28;;;32.15;;
54899;SDS011;40801;41.924;25.562;2023-03-01T05:49:18;40.67;;;29.63;;
54899;SDS011;40801;41.924;25.562;2023-03-01T05:51:48;53.58;;;36.80;;
54899;SDS011;40801;41.924;25.562;2023-03-01T05:54:15;53.95;;;39.42;;
54899;SDS011;40801;41.924;25.562;2023-03-01T05:56:41;52.50;;;37.38;;
54899;SDS011;40801;41.924;25.562;2023-03-01T05:59:06;44.17;;;33.30;;
54899;SDS011;40801;41.924;25.562;2023-03-01T06:01:32;44.85;;;33.13;;
54899;SDS011;40801;41.924;25.562;2023-03-01T06:03:58;64.45;;;50.00;;
54899;SDS011;40801;41.924;25.562;2023-03-01T06:06:24;33.67;;;26.98;;
54899;SDS011;40801;41.924;25.562;2023-03-01T06:08:50;29.25;;;25.10;;
54899;SDS011;40801;41.924;25.562;2023-03-01T06:11:16;27.23;;;22.52;;
54899;SDS011;40801;41.924;25.562;2023-03-01T06:13:42;29.98;;;24.95;;
54899;SDS011;40801;41.924;25.562;2023-03-01T06:16:09;34.85;;;29.20;;
54899;SDS011;40801;41.924;25.562;2023-03-01T06:18:35;29.35;;;24.25;;
54899;SDS011;40801;41.924;25.562;2023-03-01T06:21:01;25.98;;;23.17;;
54899;SDS011;40801;41.924;25.562;2023-03-01T06:23:27;27.52;;;24.45;;
54899;SDS011;40801;41.924;25.562;2023-03-01T06:25:53;22.77;;;18.95;;
54899;SDS011;40801;41.924;25.562;2023-03-01T06:28:18;30.00;;;25.83;;
54899;SDS011;40801;41.924;25.562;2023-03-01T06:30:44;25.52;;;22.80;;
54899;SDS011;40801;41.924;25.562;2023-03-01T06:33:09;28.35;;;25.30;;
54899;SDS011;40801;41.924;25.562;2023-03-01T06:35:35;26.33;;;23.50;;
54899;SDS011;40801;41.924;25.562;2023-03-01T06:38:01;22.75;;;20.45;;
54899;SDS011;40801;41.924;25.562;2023-03-01T06:40:28;25.42;;;22.63;;
54899;SDS011;40801;41.924;25.562;2023-03-01T06:42:53;22.77;;;19.77;;
54899;SDS011;40801;41.924;25.562;2023-03-01T06:45:19;24.73;;;22.10;;
54899;SDS011;40801;41.924;25.562;2023-03-01T06:47:46;28.80;;;24.60;;
54899;SDS011;40801;41.924;25.562;2023-03-01T06:50:12;37.53;;;29.73;;
54899;SDS011;40801;41.924;25.562;2023-03-01T06:52:38;33.53;;;27.40;;
54899;SDS011;40801;41.924;25.562;2023-03-01T06:55:04;40.38;;;33.53;;
54899;SDS011;40801;41.924;25.562;2023-03-01T06:57:30;36.80;;;25.83;;
54899;SDS011;40801;41.924;25.562;2023-03-01T06:59:55;42.33;;;34.15;;
54899;SDS011;40801;41.924;25.562;2023-03-01T07:02:21;34.10;;;27.30;;
54899;SDS011;40801;41.924;25.562;2023-03-01T07:04:46;24.45;;;21.52;;
54899;SDS011;40801;41.924;25.562;2023-03-01T07:07:14;23.50;;;20.92;;
54899;SDS011;40801;41.924;25.562;2023-03-01T07:09:39;33.95;;;27.08;;
54899;SDS011;40801;41.924;25.562;2023-03-01T07:12:04;32.53;;;26.95;;
54899;SDS011;40801;41.924;25.562;2023-03-01T07:14:30;41.08;;;30.08;;
54899;SDS011;40801;41.924;25.562;2023-03-01T07:16:56;54.17;;;39.03;;
54899;SDS011;40801;41.924;25.562;2023-03-01T07:19:22;61.13;;;41.35;;
54899;SDS011;40801;41.924;25.562;2023-03-01T07:21:48;50.60;;;34.88;;
54899;SDS011;40801;41.924;25.562;2023-03-01T07:24:13;56.78;;;37.45;;
54899;SDS011;40801;41.924;25.562;2023-03-01T07:26:39;51.25;;;36.03;;
54899;SDS011;40801;41.924;25.562;2023-03-01T07:29:05;52.88;;;38.92;;
54899;SDS011;40801;41.924;25.562;2023-03-01T07:31:32;57.95;;;40.47;;
54899;SDS011;40801;41.924;25.562;2023-03-01T07:33:57;58.55;;;38.90;;
54899;SDS011;40801;41.924;25.562;2023-03-01T07:36:23;57.38;;;40.35;;
54899;SDS011;40801;41.924;25.562;2023-03-01T07:38:48;45.75;;;32.47;;
54899;SDS011;40801;41.924;25.562;2023-03-01T07:41:14;45.13;;;34.20;;
54899;SDS011;40801;41.924;25.562;2023-03-01T07:43:40;55.70;;;36.72;;
54899;SDS011;40801;41.924;25.562;2023-03-01T07:46:05;48.40;;;36.40;;
54899;SDS011;40801;41.924;25.562;2023-03-01T07:48:32;55.10;;;39.60;;
54899;SDS011;40801;41.924;25.562;2023-03-01T07:51:01;49.92;;;35.47;;
54899;SDS011;40801;41.924;25.562;2023-03-01T07:53:28;60.30;;;41.65;;
54899;SDS011;40801;41.924;25.562;2023-03-01T07:58:36;48.47;;;33.30;;
54899;SDS011;40801;41.924;25.562;2023-03-01T08:01:03;61.25;;;42.28;;
54899;SDS011;40801;41.924;25.562;2023-03-01T08:03:29;50.40;;;33.63;;
54899;SDS011;40801;41.924;25.562;2023-03-01T08:05:54;49.83;;;35.70;;
54899;SDS011;40801;41.924;25.562;2023-03-01T08:08:20;53.88;;;37.40;;
54899;SDS011;40801;41.924;25.562;2023-03-01T08:10:46;49.33;;;37.53;;
54899;SDS011;40801;41.924;25.562;2023-03-01T08:13:11;49.38;;;33.40;;
54899;SDS011;40801;41.924;25.562;2023-03-01T08:15:36;53.97;;;37.35;;
54899;SDS011;40801;41.924;25.562;2023-03-01T08:18:02;48.88;;;34.17;;
54899;SDS011;40801;41.924;25.562;2023-03-01T08:20:27;53.83;;;36.72;;
54899;SDS011;40801;41.924;25.562;2023-03-01T08:22:53;58.13;;;39.17;;
54899;SDS011;40801;41.924;25.562;2023-03-01T08:25:18;61.33;;;38.97;;
54899;SDS011;40801;41.924;25.562;2023-03-01T08:27:43;79.03;;;46.83;;
54899;SDS011;40801;41.924;25.562;2023-03-01T08:30:09;87.10;;;56.40;;
54899;SDS011;40801;41.924;25.562;2023-03-01T08:32:35;93.45;;;50.83;;
54899;SDS011;40801;41.924;25.562;2023-03-01T08:35:02;99.45;;;50.78;;
54899;SDS011;40801;41.924;25.562;2023-03-01T08:37:28;91.53;;;49.13;;
54899;SDS011;40801;41.924;25.562;2023-03-01T08:39:55;73.53;;;44.65;;
54899;SDS011;40801;41.924;25.562;2023-03-01T08:42:21;64.47;;;44.63;;
54899;SDS011;40801;41.924;25.562;2023-03-01T08:44:46;67.80;;;42.13;;
54899;SDS011;40801;41.924;25.562;2023-03-01T08:47:12;77.05;;;52.85;;
54899;SDS011;40801;41.924;25.562;2023-03-01T08:49:37;78.93;;;60.17;;
54899;SDS011;40801;41.924;25.562;2023-03-01T08:52:03;67.95;;;42.85;;
54899;SDS011;40801;41.924;25.562;2023-03-01T08:54:28;57.55;;;39.25;;
54899;SDS011;40801;41.924;25.562;2023-03-01T08:56:53;52.10;;;36.85;;
54899;SDS011;40801;41.924;25.562;2023-03-01T08:59:19;61.42;;;40.67;;
54899;SDS011;40801;41.924;25.562;2023-03-01T09:01:44;52.33;;;39.35;;
54899;SDS011;40801;41.924;25.562;2023-03-01T09:04:11;51.38;;;38.58;;
54899;SDS011;40801;41.924;25.562;2023-03-01T09:06:37;27.33;;;22.88;;
54899;SDS011;40801;41.924;25.562;2023-03-01T09:09:03;51.95;;;35.72;;
54899;SDS011;40801;41.924;25.562;2023-03-01T09:11:29;63.33;;;45.28;;
54899;SDS011;40801;41.924;25.562;2023-03-01T09:13:55;58.80;;;39.80;;
54899;SDS011;40801;41.924;25.562;2023-03-01T09:16:21;57.10;;;37.78;;
54899;SDS011;40801;41.924;25.562;2023-03-01T09:18:54;52.90;;;35.78;;
54899;SDS011;40801;41.924;25.562;2023-03-01T09:21:20;53.10;;;38.53;;
54899;SDS011;40801;41.924;25.562;2023-03-01T09:23:48;39.70;;;28.27;;
54899;SDS011;40801;41.924;25.562;2023-03-01T09:26:18;33.25;;;28.17;;
54899;SDS011;40801;41.924;25.562;2023-03-01T09:28:46;34.33;;;28.30;;
54899;SDS011;40801;41.924;25.562;2023-03-01T09:31:12;34.47;;;27.48;;
54899;SDS011;40801;41.924;25.562;2023-03-01T09:33:39;27.05;;;23.38;;
54899;SDS011;40801;41.924;25.562;2023-03-01T09:36:06;22.45;;;20.20;;
54899;SDS011;40801;41.924;25.562;2023-03-01T09:38:33;28.92;;;26.00;;
54899;SDS011;40801;41.924;25.562;2023-03-01T09:40:59;47.22;;;42.15;;
54899;SDS011;40801;41.924;25.562;2023-03-01T09:46:08;29.38;;;26.48;;
54899;SDS011;40801;41.924;25.562;2023-03-01T09:48:41;25.65;;;23.13;;
54899;SDS011;40801;41.924;25.562;2023-03-01T09:51:12;38.88;;;34.45;;
54899;SDS011;40801;41.924;25.562;2023-03-01T09:53:43;20.40;;;18.50;;
54899;SDS011;40801;41.924;25.562;2023-03-01T09:56:22;24.23;;;21.73;;
54899;SDS011;40801;41.924;25.562;2023-03-01T10:04:44;20.38;;;18.23;;
54899;SDS011;40801;41.924;25.562;2023-03-01T10:09:55;18.92;;;17.02;;
54899;SDS011;40801;41.924;25.562;2023-03-01T10:12:22;17.33;;;15.68;;
54899;SDS011;40801;41.924;25.562;2023-03-01T10:19:53;21.25;;;18.65;;
54899;SDS011;40801;41.924;25.562;2023-03-01T10:22:22;33.33;;;30.42;;
54899;SDS011;40801;41.924;25.562;2023-03-01T10:24:53;19.85;;;18.02;;
54899;SDS011;40801;41.924;25.562;2023-03-01T10:32:46;19.20;;;17.35;;
54899;SDS011;40801;41.924;25.562;2023-03-01T10:35:20;18.73;;;16.92;;
54899;SDS011;40801;41.924;25.562;2023-03-01T10:40:22;17.55;;;15.80;;
54899;SDS011;40801;41.924;25.562;2023-03-01T10:42:48;17.25;;;15.65;;
54899;SDS011;40801;41.924;25.562;2023-03-01T10:47:42;17.27;;;15.57;;
54899;SDS011;40801;41.924;25.562;2023-03-01T10:50:17;18.52;;;15.43;;
54899;SDS011;40801;41.924;25.562;2023-03-01T10:52:55;22.73;;;18.45;;
54899;SDS011;40801;41.924;25.562;2023-03-01T10:55:42;22.75;;;20.52;;
54899;SDS011;40801;41.924;25.562;2023-03-01T10:58:08;21.33;;;19.30;;
54899;SDS011;40801;41.924;25.562;2023-03-01T11:00:34;19.90;;;17.92;;
54899;SDS011;40801;41.924;25.562;2023-03-01T11:03:12;27.38;;;24.70;;
54899;SDS011;40801;41.924;25.562;2023-03-01T11:08:32;25.63;;;22.98;;
54899;SDS011;40801;41.924;25.562;2023-03-01T11:11:13;30.25;;;24.70;;
54899;SDS011;40801;41.924;25.562;2023-03-01T11:13:55;29.90;;;26.55;;
54899;SDS011;40801;41.924;25.562;2023-03-01T11:16:27;34.92;;;28.75;;
54899;SDS011;40801;41.924;25.562;2023-03-01T11:18:57;28.27;;;25.45;;
54899;SDS011;40801;41.924;25.562;2023-03-01T11:21:24;26.05;;;21.40;;
54899;SDS011;40801;41.924;25.562;2023-03-01T11:23:53;25.73;;;23.08;;
54899;SDS011;40801;41.924;25.562;2023-03-01T11:26:18;22.15;;;19.50;;
54899;SDS011;40801;41.924;25.562;2023-03-01T11:28:46;21.20;;;19.13;;
54899;SDS011;40801;41.924;25.562;2023-03-01T11:31:16;20.52;;;18.52;;
54899;SDS011;40801;41.924;25.562;2023-03-01T11:39:16;35.33;;;31.48;;
54899;SDS011;40801;41.924;25.562;2023-03-01T11:42:05;23.85;;;21.30;;
54899;SDS011;40801;41.924;25.562;2023-03-01T11:44:37;18.45;;;16.55;;
54899;SDS011;40801;41.924;25.562;2023-03-01T11:49:52;27.92;;;25.27;;
54899;SDS011;40801;41.924;25.562;2023-03-01T11:52:22;20.48;;;18.48;;
54899;SDS011;40801;41.924;25.562;2023-03-01T12:01:21;21.67;;;19.50;;
54899;SDS011;40801;41.924;25.562;2023-03-01T12:04:03;26.98;;;24.30;;
54899;SDS011;40801;41.924;25.562;2023-03-01T12:12:30;26.38;;;23.65;;
54899;SDS011;40801;41.924;25.562;2023-03-01T12:23:45;18.77;;;17.00;;
54899;SDS011;40801;41.924;25.562;2023-03-01T12:51:24;26.20;;;20.95;;
54899;SDS011;40801;41.924;25.562;2023-03-01T12:53:54;21.83;;;19.63;;
54899;SDS011;40801;41.924;25.562;2023-03-01T12:56:23;22.55;;;20.20;;
54899;SDS011;40801;41.924;25.562;2023-03-01T13:10:10;25.42;;;22.85;;
54899;SDS011;40801;41.924;25.562;2023-03-01T13:17:52;18.40;;;16.40;;
54899;SDS011;40801;41.924;25.562;2023-03-01T13:21:05;21.02;;;18.95;;
54899;SDS011;40801;41.924;25.562;2023-03-01T13:25:59;25.48;;;22.92;;
54899;SDS011;40801;41.924;25.562;2023-03-01T13:30:57;31.20;;;27.92;;
54899;SDS011;40801;41.924;25.562;2023-03-01T13:35:51;27.05;;;24.20;;
54899;SDS011;40801;41.924;25.562;2023-03-01T13:38:37;27.65;;;24.65;;
54899;SDS011;40801;41.924;25.562;2023-03-01T13:41:11;22.20;;;19.95;;
54899;SDS011;40801;41.924;25.562;2023-03-01T13:43:42;23.40;;;20.90;;
54899;SDS011;40801;41.924;25.562;2023-03-01T13:46:12;26.30;;;21.80;;
54899;SDS011;40801;41.924;25.562;2023-03-01T13:48:43;26.92;;;23.50;;
54899;SDS011;40801;41.924;25.562;2023-03-01T13:51:12;23.63;;;21.13;;
54899;SDS011;40801;41.924;25.562;2023-03-01T13:53:42;20.25;;;18.17;;
54899;SDS011;40801;41.924;25.562;2023-03-01T13:56:21;24.70;;;22.10;;
54899;SDS011;40801;41.924;25.562;2023-03-01T13:58:54;26.15;;;22.50;;
54899;SDS011;40801;41.924;25.562;2023-03-01T14:03:57;22.25;;;19.95;;
54899;SDS011;40801;41.924;25.562;2023-03-01T14:06:27;24.25;;;21.65;;
54899;SDS011;40801;41.924;25.562;2023-03-01T14:09:10;25.92;;;23.23;;
54899;SDS011;40801;41.924;25.562;2023-03-01T14:14:42;23.73;;;21.33;;
54899;SDS011;40801;41.924;25.562;2023-03-01T14:17:18;30.38;;;26.83;;
54899;SDS011;40801;41.924;25.562;2023-03-01T14:19:56;23.35;;;20.85;;
54899;SDS011;40801;41.924;25.562;2023-03-01T14:27:37;22.10;;;19.80;;
54899;SDS011;40801;41.924;25.562;2023-03-01T14:30:15;25.65;;;22.92;;
54899;SDS011;40801;41.924;25.562;2023-03-01T14:35:26;40.20;;;31.67;;
54899;SDS011;40801;41.924;25.562;2023-03-01T14:37:56;29.15;;;25.98;;
54899;SDS011;40801;41.924;25.562;2023-03-01T14:40:23;33.65;;;29.75;;
54899;SDS011;40801;41.924;25.562;2023-03-01T14:42:51;28.73;;;23.90;;
54899;SDS011;40801;41.924;25.562;2023-03-01T14:45:18;29.92;;;25.83;;
54899;SDS011;40801;41.924;25.562;2023-03-01T14:47:45;36.78;;;32.08;;
54899;SDS011;40801;41.924;25.562;2023-03-01T14:50:32;33.28;;;26.20;;
54899;SDS011;40801;41.924;25.562;2023-03-01T14:52:59;35.03;;;29.50;;
54899;SDS011;40801;41.924;25.562;2023-03-01T14:55:32;30.20;;;26.40;;
54899;SDS011;40801;41.924;25.562;2023-03-01T14:58:02;27.02;;;23.35;;
54899;SDS011;40801;41.924;25.562;2023-03-01T15:00:30;34.42;;;30.70;;
54899;SDS011;40801;41.924;25.562;2023-03-01T15:03:08;31.63;;;28.30;;
54899;SDS011;40801;41.924;25.562;2023-03-01T15:05:39;28.65;;;23.98;;
54899;SDS011;40801;41.924;25.562;2023-03-01T15:08:07;23.65;;;21.23;;
54899;SDS011;40801;41.924;25.562;2023-03-01T15:10:55;25.63;;;21.33;;
54899;SDS011;40801;41.924;25.562;2023-03-01T15:13:23;25.30;;;22.30;;
54899;SDS011;40801;41.924;25.562;2023-03-01T15:15:53;25.75;;;22.92;;
54899;SDS011;40801;41.924;25.562;2023-03-01T15:18:31;25.98;;;23.35;;
54899;SDS011;40801;41.924;25.562;2023-03-01T15:21:15;29.30;;;25.52;;
54899;SDS011;40801;41.924;25.562;2023-03-01T15:23:47;25.27;;;22.17;;
54899;SDS011;40801;41.924;25.562;2023-03-01T15:26:25;23.35;;;20.92;;
54899;SDS011;40801;41.924;25.562;2023-03-01T15:29:16;29.52;;;24.85;;
54899;SDS011;40801;41.924;25.562;2023-03-01T15:31:53;21.17;;;18.98;;
54899;SDS011;40801;41.924;25.562;2023-03-01T15:36:51;25.08;;;21.35;;
54899;SDS011;40801;41.924;25.562;2023-03-01T15:45:20;34.33;;;28.95;;
54899;SDS011;40801;41.924;25.562;2023-03-01T15:47:49;28.40;;;25.30;;
54899;SDS011;40801;41.924;25.562;2023-03-01T15:50:21;29.45;;;26.38;;
54899;SDS011;40801;41.924;25.562;2023-03-01T15:52:48;29.27;;;26.13;;
54899;SDS011;40801;41.924;25.562;2023-03-01T15:55:19;31.55;;;28.17;;
54899;SDS011;40801;41.924;25.562;2023-03-01T15:57:49;33.50;;;27.42;;
54899;SDS011;40801;41.924;25.562;2023-03-01T16:00:15;39.20;;;34.85;;
54899;SDS011;40801;41.924;25.562;2023-03-01T16:02:42;36.38;;;32.53;;
54899;SDS011;40801;41.924;25.562;2023-03-01T16:07:48;89.38;;;60.28;;
54899;SDS011;40801;41.924;25.562;2023-03-01T16:10:13;81.38;;;56.38;;
54899;SDS011;40801;41.924;25.562;2023-03-01T16:12:39;77.30;;;56.28;;
54899;SDS011;40801;41.924;25.562;2023-03-01T16:15:08;72.50;;;54.45;;
54899;SDS011;40801;41.924;25.562;2023-03-01T16:17:48;59.83;;;40.33;;
54899;SDS011;40801;41.924;25.562;2023-03-01T16:20:14;34.80;;;29.45;;
54899;SDS011;40801;41.924;25.562;2023-03-01T16:22:41;40.38;;;32.78;;
54899;SDS011;40801;41.924;25.562;2023-03-01T16:25:08;49.05;;;37.50;;
54899;SDS011;40801;41.924;25.562;2023-03-01T16:27:35;68.88;;;47.30;;
54899;SDS011;40801;41.924;25.562;2023-03-01T16:30:00;50.42;;;40.72;;
54899;SDS011;40801;41.924;25.562;2023-03-01T16:32:26;49.38;;;37.28;;
54899;SDS011;40801;41.924;25.562;2023-03-01T16:34:51;32.78;;;27.50;;
54899;SDS011;40801;41.924;25.562;2023-03-01T16:37:17;28.50;;;24.83;;
54899;SDS011;40801;41.924;25.562;2023-03-01T16:39:44;25.38;;;22.67;;
54899;SDS011;40801;41.924;25.562;2023-03-01T16:42:09;31.08;;;27.73;;
54899;SDS011;40801;41.924;25.562;2023-03-01T16:44:34;36.42;;;30.40;;
54899;SDS011;40801;41.924;25.562;2023-03-01T16:47:00;25.75;;;22.10;;
54899;SDS011;40801;41.924;25.562;2023-03-01T16:49:25;28.98;;;26.00;;